createdAt,value
2023-02-03T00:00:51.867Z,11.43
2023-02-03T00:03:22.284Z,10.90
2023-02-03T00:05:54.550Z,10.20
2023-02-03T00:08:25.635Z,10.10
2023-02-03T00:10:56.888Z,10.00
2023-02-03T00:13:27.410Z,9.27
2023-02-03T00:15:58.664Z,8.40
2023-02-03T00:18:29.389Z,9.73
2023-02-03T00:21:01.362Z,9.30
2023-02-03T00:23:32.586Z,11.07
2023-02-03T00:26:10.108Z,10.70
2023-02-03T00:28:41.246Z,11.17
2023-02-03T00:31:19.195Z,9.20
2023-02-03T00:33:50.123Z,10.67
2023-02-03T00:36:23.356Z,10.87
2023-02-03T00:38:54.068Z,9.83
2023-02-03T00:41:25.569Z,10.20
2023-02-03T00:43:57.492Z,11.07
2023-02-03T00:46:28.233Z,10.13
2023-02-03T00:48:59.140Z,10.53
2023-02-03T00:51:31.956Z,10.70
2023-02-03T00:54:03.172Z,10.40
2023-02-03T00:56:34.067Z,10.20
2023-02-03T00:59:04.533Z,9.13
2023-02-03T01:01:34.829Z,10.00
2023-02-03T01:04:05.553Z,9.63
2023-02-03T01:06:37.912Z,9.60
2023-02-03T01:09:08.457Z,9.70
2023-02-03T01:11:38.839Z,8.90
2023-02-03T01:14:09.439Z,8.60
2023-02-03T01:16:40.479Z,8.30
2023-02-03T01:19:11.189Z,8.30
2023-02-03T01:21:43.449Z,7.83
2023-02-03T01:24:15.378Z,7.63
2023-02-03T01:26:46.400Z,8.37
2023-02-03T01:29:17.700Z,8.47
2023-02-03T01:31:48.310Z,8.70
2023-02-03T01:34:18.805Z,9.13
2023-02-03T01:36:52.159Z,9.80
2023-02-03T01:39:22.211Z,9.47
2023-02-03T01:41:53.138Z,9.10
2023-02-03T01:44:43.702Z,11.10
2023-02-03T01:47:20.589Z,10.00
2023-02-03T01:49:53.694Z,10.13
2023-02-03T01:52:25.769Z,10.10
2023-02-03T01:54:58.285Z,10.47
2023-02-03T01:57:32.178Z,9.40
2023-02-03T02:00:03.438Z,10.30
2023-02-03T02:02:35.247Z,8.97
2023-02-03T02:05:10.611Z,9.03
2023-02-03T02:07:42.421Z,10.47
2023-02-03T02:10:13.722Z,9.43
2023-02-03T02:12:44.030Z,9.90
2023-02-03T02:15:14.353Z,10.50
2023-02-03T02:18:06.271Z,10.20
2023-02-03T02:21:13.755Z,10.77
2023-02-03T02:24:24.919Z,11.00
2023-02-03T02:27:05.106Z,10.10
2023-02-03T02:30:01.537Z,11.97
2023-02-03T02:32:44.269Z,10.73
2023-02-03T02:35:22.069Z,9.70
2023-02-03T02:37:55.783Z,9.83
2023-02-03T02:40:33.454Z,9.83
2023-02-03T02:43:09.780Z,9.70
2023-02-03T02:45:47.148Z,11.00
2023-02-03T02:48:25.080Z,8.37
2023-02-03T02:50:58.689Z,9.87
2023-02-03T02:53:34.417Z,10.30
2023-02-03T02:56:09.732Z,9.40
2023-02-03T02:58:42.733Z,8.07
2023-02-03T03:01:13.357Z,10.10
2023-02-03T03:03:45.593Z,9.63
2023-02-03T03:06:19.876Z,10.40
2023-02-03T03:08:53.902Z,9.40
2023-02-03T03:11:25.431Z,9.33
2023-02-03T03:13:57.214Z,9.90
2023-02-03T03:16:29.757Z,9.00
2023-02-03T03:19:04.748Z,9.90
2023-02-03T03:21:39.237Z,9.97
2023-02-03T03:24:14.364Z,10.57
2023-02-03T03:26:48.401Z,9.10
2023-02-03T03:29:21.259Z,8.80
2023-02-03T03:31:52.219Z,9.93
2023-02-03T03:34:23.805Z,9.80
2023-02-03T03:36:59.623Z,7.90
2023-02-03T03:39:34.699Z,9.00
2023-02-03T03:42:11.264Z,9.30
2023-02-03T03:44:47.343Z,9.50
2023-02-03T03:47:21.710Z,9.63
2023-02-03T03:49:53.972Z,9.70
2023-02-03T03:52:28.600Z,11.47
2023-02-03T03:54:59.839Z,12.90
2023-02-03T03:57:33.030Z,12.13
2023-02-03T04:00:06.390Z,13.13
2023-02-03T04:02:37.542Z,12.07
2023-02-03T04:05:15.303Z,10.53
2023-02-03T04:07:47.744Z,13.23
2023-02-03T04:10:24.598Z,12.20
2023-02-03T04:12:54.949Z,12.57
2023-02-03T04:15:25.517Z,12.87
2023-02-03T04:17:57.441Z,12.93
2023-02-03T04:20:29.614Z,14.07
2023-02-03T04:22:59.752Z,14.37
2023-02-03T04:25:29.883Z,13.23
2023-02-03T04:28:01.183Z,13.57
2023-02-03T04:30:31.696Z,13.47
2023-02-03T04:33:02.484Z,11.30
2023-02-03T04:35:33.966Z,12.23
2023-02-03T04:38:04.540Z,12.87
2023-02-03T04:40:35.161Z,13.47
2023-02-03T04:43:09.815Z,13.17
2023-02-03T04:45:39.977Z,15.63
2023-02-03T04:48:11.370Z,14.50
2023-02-03T04:50:43.272Z,16.20
2023-02-03T04:53:15.656Z,13.70
2023-02-03T04:55:50.024Z,11.43
2023-02-03T04:58:20.676Z,11.30
2023-02-03T05:00:50.615Z,11.53
2023-02-03T05:03:22.603Z,15.87
2023-02-03T05:05:58.765Z,12.07
2023-02-03T05:08:29.360Z,15.50
2023-02-03T05:11:01.778Z,15.20
2023-02-03T05:13:32.399Z,13.47
2023-02-03T05:16:01.996Z,11.47
2023-02-03T05:18:33.484Z,12.60
2023-02-03T05:21:06.001Z,12.47
2023-02-03T05:23:36.976Z,12.47
2023-02-03T05:26:07.311Z,13.60
2023-02-03T05:28:37.537Z,13.53
2023-02-03T05:31:08.494Z,13.10
2023-02-03T05:33:39.564Z,12.30
2023-02-03T05:36:12.450Z,11.73
2023-02-03T05:38:43.079Z,11.77
2023-02-03T05:41:30.761Z,12.20
2023-02-03T05:44:00.502Z,12.57
2023-02-03T05:46:31.761Z,11.97
2023-02-03T05:49:02.439Z,12.70
2023-02-03T05:51:34.252Z,11.23
2023-02-03T05:54:04.122Z,12.77
2023-02-03T05:56:33.636Z,12.97
2023-02-03T05:59:03.725Z,11.90
2023-02-03T06:01:34.840Z,11.60
2023-02-03T06:04:06.697Z,12.70
2023-02-03T06:06:39.175Z,12.17
2023-02-03T06:09:10.770Z,12.27
2023-02-03T06:11:43.095Z,11.33
2023-02-03T06:14:13.392Z,12.40
2023-02-03T06:16:43.997Z,10.20
2023-02-03T06:19:21.648Z,10.37
2023-02-03T06:22:03.245Z,10.10
2023-02-03T06:24:42.923Z,9.93
2023-02-03T06:27:22.933Z,10.37
2023-02-03T06:29:54.212Z,11.63
2023-02-03T06:32:25.311Z,9.60
2023-02-03T06:34:55.392Z,11.40
2023-02-03T06:37:27.282Z,10.53
2023-02-03T06:39:57.490Z,9.87
2023-02-03T06:42:28.062Z,11.70
2023-02-03T06:44:57.795Z,11.40
2023-02-03T06:47:28.789Z,11.80
2023-02-03T06:49:59.533Z,11.23
2023-02-03T06:52:31.004Z,12.50
2023-02-03T06:55:00.734Z,11.70
2023-02-03T06:57:30.963Z,12.60
2023-02-03T07:00:01.602Z,12.13
2023-02-03T07:02:32.191Z,11.37
2023-02-03T07:05:02.768Z,12.60
2023-02-03T07:07:35.642Z,13.27
2023-02-03T07:10:05.337Z,12.80
2023-02-03T07:12:36.925Z,13.93
2023-02-03T07:15:08.400Z,12.03
2023-02-03T07:17:38.821Z,11.30
2023-02-03T07:20:10.624Z,12.20
2023-02-03T07:22:44.751Z,12.50
2023-02-03T07:25:15.697Z,10.43
2023-02-03T07:27:45.816Z,12.23
2023-02-03T07:30:16.581Z,11.20
2023-02-03T07:32:50.286Z,10.93
2023-02-03T07:35:21.300Z,9.30
2023-02-03T07:37:53.293Z,9.33
2023-02-03T07:40:23.821Z,9.27
2023-02-03T07:42:54.718Z,8.63
2023-02-03T07:45:25.083Z,9.43
2023-02-03T07:47:55.663Z,10.23
2023-02-03T07:50:25.526Z,12.40
2023-02-03T07:52:57.366Z,13.03
2023-02-03T07:55:28.719Z,14.60
2023-02-03T07:58:02.914Z,13.20
2023-02-03T08:00:34.797Z,13.40
2023-02-03T08:03:11.380Z,13.40
2023-02-03T08:05:45.686Z,13.30
2023-02-03T08:08:17.989Z,15.13
2023-02-03T08:10:48.602Z,14.33
2023-02-03T08:13:18.809Z,14.73
2023-02-03T08:15:50.356Z,13.27
2023-02-03T08:18:22.859Z,13.23
2023-02-03T08:20:53.470Z,14.60
2023-02-03T08:23:26.510Z,14.63
2023-02-03T08:25:56.493Z,15.47
2023-02-03T08:28:26.698Z,16.53
2023-02-03T08:30:58.163Z,16.27
2023-02-03T08:33:29.903Z,18.27
2023-02-03T08:36:01.363Z,17.23
2023-02-03T08:38:33.472Z,16.47
2023-02-03T08:41:03.570Z,17.17
2023-02-03T08:43:33.583Z,17.27
2023-02-03T08:46:06.136Z,15.47
2023-02-03T08:48:37.183Z,17.20
2023-02-03T08:51:13.264Z,18.10
2023-02-03T08:53:45.961Z,16.30
2023-02-03T08:56:16.788Z,16.70
2023-02-03T08:58:47.232Z,15.40
2023-02-03T09:01:19.283Z,16.10
2023-02-03T09:03:49.317Z,15.67
2023-02-03T09:06:22.749Z,15.50
2023-02-03T09:08:55.547Z,15.83
2023-02-03T09:11:26.734Z,15.90
2023-02-03T09:13:58.215Z,17.00
2023-02-03T09:16:31.413Z,14.60
2023-02-03T09:19:02.109Z,16.63
2023-02-03T09:21:38.882Z,15.00
2023-02-03T09:24:13.531Z,15.40
2023-02-03T09:26:43.445Z,14.53
2023-02-03T09:29:13.745Z,14.83
2023-02-03T09:31:44.184Z,17.63
2023-02-03T09:34:14.628Z,13.70
2023-02-03T09:36:46.360Z,13.93
2023-02-03T09:39:17.549Z,15.33
2023-02-03T09:42:15.796Z,13.87
2023-02-03T09:44:52.429Z,14.40
2023-02-03T09:47:26.838Z,13.40
2023-02-03T09:50:00.289Z,15.30
2023-02-03T09:52:32.872Z,13.03
2023-02-03T09:55:08.319Z,12.17
2023-02-03T09:57:43.248Z,11.47
2023-02-03T10:00:21.596Z,14.27
2023-02-03T10:02:58.769Z,13.47
2023-02-03T10:05:38.461Z,11.77
2023-02-03T10:08:17.399Z,11.10
2023-02-03T10:11:10.006Z,9.80
2023-02-03T10:13:52.525Z,10.00
2023-02-03T10:16:44.905Z,7.67
2023-02-03T10:19:21.038Z,4.10
2023-02-03T10:21:53.367Z,7.20
2023-02-03T10:24:29.078Z,5.80
2023-02-03T10:27:01.264Z,4.80
2023-02-03T10:29:37.112Z,3.43
2023-02-03T10:32:12.201Z,4.30
2023-02-03T10:34:44.763Z,4.40
2023-02-03T10:37:23.141Z,4.20
2023-02-03T10:39:53.929Z,4.23
2023-02-03T10:42:46.981Z,3.73
2023-02-03T10:45:17.951Z,3.10
2023-02-03T10:47:51.116Z,5.87
2023-02-03T10:50:22.829Z,4.73
2023-02-03T10:52:53.245Z,5.20
2023-02-03T10:55:33.992Z,7.73
2023-02-03T10:58:12.788Z,6.80
2023-02-03T11:00:43.351Z,8.13
2023-02-03T11:03:25.121Z,6.67
2023-02-03T11:06:10.907Z,6.50
2023-02-03T11:08:43.855Z,5.77
2023-02-03T11:11:18.637Z,4.83
2023-02-03T11:13:57.162Z,5.60
2023-02-03T11:16:28.051Z,7.17
2023-02-03T11:19:00.595Z,7.07
2023-02-03T11:21:33.755Z,7.13
2023-02-03T11:24:07.077Z,8.57
2023-02-03T11:26:39.326Z,6.60
2023-02-03T11:29:19.363Z,5.80
2023-02-03T11:31:52.229Z,4.67
2023-02-03T11:34:26.478Z,4.47
2023-02-03T11:36:56.699Z,4.63
2023-02-03T11:39:29.821Z,4.33
2023-02-03T11:42:00.423Z,2.97
2023-02-03T11:44:34.172Z,2.60
2023-02-03T11:47:06.008Z,2.50
2023-02-03T11:50:01.607Z,2.67
2023-02-03T11:52:56.095Z,2.97
2023-02-03T11:55:36.346Z,2.20
2023-02-03T11:58:29.804Z,2.80
2023-02-03T12:01:09.557Z,2.80
2023-02-03T12:04:14.577Z,3.30
2023-02-03T12:07:01.674Z,3.83
2023-02-03T12:09:38.719Z,3.63
2023-02-03T12:12:45.631Z,4.80
2023-02-03T12:15:35.354Z,4.40
2023-02-03T12:18:16.353Z,5.13
2023-02-03T12:21:00.649Z,4.97
2023-02-03T12:23:43.382Z,4.30
2023-02-03T12:26:20.585Z,4.33
2023-02-03T12:29:06.278Z,4.83
2023-02-03T12:31:40.653Z,5.50
2023-02-03T12:34:19.297Z,4.93
2023-02-03T12:36:54.236Z,6.40
2023-02-03T12:39:30.350Z,6.53
2023-02-03T12:42:04.008Z,7.30
2023-02-03T12:44:37.986Z,6.30
2023-02-03T12:47:13.687Z,5.50
2023-02-03T12:49:48.965Z,6.50
2023-02-03T12:52:23.767Z,6.90
2023-02-03T12:55:00.897Z,7.20
2023-02-03T12:57:35.207Z,7.10
2023-02-03T13:00:20.985Z,8.07
2023-02-03T13:03:01.368Z,8.30
2023-02-03T13:05:43.940Z,6.27
2023-02-03T13:08:20.575Z,8.33
2023-02-03T13:10:54.688Z,7.00
2023-02-03T13:13:31.735Z,6.77
2023-02-03T13:16:04.260Z,8.03
2023-02-03T13:18:38.389Z,7.53
2023-02-03T13:21:12.954Z,6.37
2023-02-03T13:23:47.919Z,7.53
2023-02-03T13:26:49.943Z,5.73
2023-02-03T13:29:46.426Z,5.40
2023-02-03T13:32:26.973Z,6.60
2023-02-03T13:35:14.538Z,5.90
2023-02-03T13:38:10.692Z,5.77
2023-02-03T13:40:48.114Z,5.83
2023-02-03T13:43:37.251Z,6.03
2023-02-03T13:46:14.408Z,6.20
2023-02-03T13:48:48.254Z,6.30
2023-02-03T13:51:20.288Z,6.20
2023-02-03T13:53:53.332Z,5.40
2023-02-03T13:56:24.961Z,6.23
2023-02-03T13:59:07.767Z,5.00
2023-02-03T14:01:40.636Z,5.90
2023-02-03T14:04:36.264Z,6.07
2023-02-03T14:07:34.168Z,5.43
2023-02-03T14:10:20.213Z,8.70
2023-02-03T14:13:00.980Z,7.77
2023-02-03T14:15:36.994Z,6.57
2023-02-03T14:18:26.264Z,7.03
2023-02-03T14:21:12.631Z,6.10
2023-02-03T14:24:00.448Z,5.50
2023-02-03T14:26:41.438Z,6.57
2023-02-03T14:29:25.567Z,6.17
2023-02-03T14:32:02.079Z,5.03
2023-02-03T14:34:38.193Z,5.40
2023-02-03T14:37:18.515Z,6.40
2023-02-03T14:40:26.249Z,6.47
2023-02-03T14:43:29.594Z,4.93
2023-02-03T14:46:30.185Z,6.23
2023-02-03T14:49:13.796Z,6.93
2023-02-03T14:51:59.665Z,6.00
2023-02-03T14:54:51.200Z,6.03
2023-02-03T14:57:33.946Z,5.63
2023-02-03T15:00:11.344Z,6.63
2023-02-03T15:03:23.155Z,6.60
2023-02-03T15:05:59.011Z,8.30
2023-02-03T15:08:44.566Z,7.33
2023-02-03T15:11:31.092Z,7.00
2023-02-03T15:14:19.543Z,7.60
2023-02-03T15:17:00.585Z,5.60
2023-02-03T15:19:34.620Z,6.30
2023-02-03T15:22:21.587Z,5.60
2023-02-03T15:24:52.724Z,6.13
2023-02-03T15:27:26.476Z,6.10
2023-02-03T15:29:59.447Z,5.03
2023-02-03T15:32:35.331Z,6.27
2023-02-03T15:35:06.983Z,6.90
2023-02-03T15:37:43.273Z,7.03
2023-02-03T15:40:16.388Z,6.93
2023-02-03T15:42:55.295Z,7.77
2023-02-03T15:45:31.212Z,7.67
2023-02-03T15:48:06.144Z,8.90
2023-02-03T15:50:40.719Z,8.07
2023-02-03T15:53:16.164Z,7.30
2023-02-03T15:55:48.684Z,8.80
2023-02-03T15:58:22.637Z,9.13
2023-02-03T16:00:54.852Z,11.20
2023-02-03T16:03:30.614Z,9.03
2023-02-03T16:06:10.831Z,9.90
2023-02-03T16:08:46.765Z,14.23
2023-02-03T16:11:31.686Z,15.27
2023-02-03T16:14:03.649Z,12.50
2023-02-03T16:16:38.639Z,11.00
2023-02-03T16:19:15.864Z,9.63
2023-02-03T16:21:56.025Z,7.10
2023-02-03T16:24:41.639Z,8.23
2023-02-03T16:27:38.885Z,10.57
2023-02-03T16:30:43.574Z,5.80
2023-02-03T16:33:34.883Z,4.70
2023-02-03T16:36:32.933Z,4.20
2023-02-03T16:39:28.751Z,2.80
2023-02-03T16:42:17.765Z,1.90
2023-02-03T16:45:05.707Z,1.23
2023-02-03T16:47:53.418Z,0.50
2023-02-03T16:50:42.159Z,0.67
2023-02-03T16:53:17.185Z,0.70
2023-02-03T16:55:48.196Z,0.60
2023-02-03T16:58:19.206Z,1.30
2023-02-03T17:00:52.419Z,0.67
2023-02-03T17:03:25.585Z,0.60
2023-02-03T17:05:56.975Z,0.80
2023-02-03T17:08:28.991Z,0.70
2023-02-03T17:11:06.509Z,1.10
2023-02-03T17:13:38.650Z,1.00
2023-02-03T17:16:14.648Z,0.80
2023-02-03T17:18:46.874Z,0.80
2023-02-03T17:21:21.146Z,1.10
2023-02-03T17:23:53.291Z,0.70
2023-02-03T17:26:23.919Z,1.00
2023-02-03T17:28:54.385Z,0.80
2023-02-03T17:31:24.500Z,1.10
2023-02-03T17:33:55.538Z,1.37
2023-02-03T17:36:25.962Z,1.13
2023-02-03T17:55:36.027Z,1.17
2023-02-03T17:58:06.434Z,0.90
2023-02-03T18:00:36.844Z,0.90
2023-02-03T18:03:07.451Z,0.80
2023-02-03T18:05:38.596Z,0.77
2023-02-03T18:08:16.341Z,1.10
2023-02-03T18:10:49.173Z,1.07
2023-02-03T18:13:24.101Z,0.90
2023-02-03T18:15:55.231Z,0.80
2023-02-03T18:18:29.242Z,0.83
2023-02-03T18:20:59.686Z,0.80
2023-02-03T18:23:32.088Z,0.73
2023-02-03T18:26:04.505Z,1.10
2023-02-03T18:28:35.492Z,0.97
2023-02-03T18:31:07.724Z,1.10
2023-02-03T18:33:39.675Z,1.00
2023-02-03T18:36:13.115Z,1.23
2023-02-03T18:38:45.093Z,0.90
2023-02-03T18:41:20.718Z,1.37
2023-02-03T18:43:51.936Z,1.00
2023-02-03T18:46:24.010Z,1.40
2023-02-03T18:48:56.525Z,0.80
2023-02-03T18:51:27.907Z,1.20
2023-02-03T18:53:59.921Z,1.10
2023-02-03T18:56:35.724Z,1.00
2023-02-03T18:59:11.914Z,0.90
2023-02-03T19:01:42.568Z,1.00
2023-02-03T19:04:12.967Z,0.77
2023-02-03T19:06:45.793Z,1.40
2023-02-03T19:09:18.625Z,1.33
2023-02-03T19:11:49.701Z,0.67
2023-02-03T19:14:20.422Z,1.00
2023-02-03T19:16:53.689Z,1.00
2023-02-03T19:19:23.937Z,1.23
2023-02-03T19:21:54.471Z,0.97
2023-02-03T19:24:27.571Z,0.90
2023-02-03T19:26:58.975Z,0.90
2023-02-03T19:29:29.824Z,0.83
2023-02-03T19:32:00.557Z,0.80
2023-02-03T19:34:31.286Z,0.90
2023-02-03T19:37:01.908Z,0.50
2023-02-03T19:39:33.564Z,0.70
2023-02-03T19:42:05.553Z,0.70
2023-02-03T19:44:38.640Z,0.80
2023-02-03T19:47:09.133Z,0.80
2023-02-03T19:49:39.465Z,0.60
2023-02-03T19:52:10.636Z,0.63
2023-02-03T19:54:41.532Z,0.50
2023-02-03T19:57:13.294Z,0.60
2023-02-03T19:59:43.207Z,0.50
2023-02-03T20:02:16.414Z,0.40
2023-02-03T20:04:48.214Z,0.50
2023-02-03T20:07:25.711Z,0.40
2023-02-03T20:09:56.686Z,0.40
2023-02-03T20:12:28.728Z,0.43
2023-02-03T20:15:00.640Z,0.40
2023-02-03T20:17:31.497Z,0.57
2023-02-03T20:20:01.779Z,0.67
2023-02-03T20:22:32.524Z,1.10
2023-02-03T20:25:03.749Z,0.57
2023-02-03T20:27:35.684Z,0.93
2023-02-03T20:30:06.033Z,0.83
2023-02-03T20:32:36.694Z,0.53
2023-02-03T20:35:07.474Z,0.90
2023-02-03T20:37:38.308Z,0.97
2023-02-03T20:40:14.726Z,0.53
2023-02-03T20:42:47.679Z,1.47
2023-02-03T20:45:18.188Z,2.10
2023-02-03T20:47:49.093Z,1.93
2023-02-03T20:50:23.638Z,1.63
2023-02-03T20:52:58.724Z,1.93
2023-02-03T20:55:28.284Z,1.60
2023-02-03T20:58:02.785Z,2.00
2023-02-03T21:00:33.141Z,2.90
2023-02-03T21:03:21.831Z,3.60
2023-02-03T21:05:51.849Z,4.60
2023-02-03T21:08:23.504Z,5.00
2023-02-03T21:10:53.820Z,5.17
2023-02-03T21:13:27.392Z,3.90
2023-02-03T21:15:59.955Z,2.47
2023-02-03T21:18:37.385Z,2.30
2023-02-03T21:21:10.998Z,2.27
2023-02-03T21:23:42.657Z,1.67
2023-02-03T21:26:21.117Z,1.43
2023-02-03T21:28:55.852Z,1.10
2023-02-03T21:31:28.873Z,1.67
2023-02-03T21:34:00.180Z,1.53
2023-02-03T21:36:33.120Z,1.40
2023-02-03T21:39:03.955Z,1.37
2023-02-03T21:41:36.079Z,1.47
2023-02-03T21:44:29.992Z,2.67
2023-02-03T21:47:01.895Z,3.17
2023-02-03T21:49:32.790Z,3.70
2023-02-03T21:52:03.645Z,5.00
2023-02-03T21:54:38.862Z,4.33
2023-02-03T21:57:15.217Z,4.60
2023-02-03T21:59:47.456Z,5.70
2023-02-03T22:02:46.367Z,5.97
2023-02-03T22:05:18.264Z,7.33
2023-02-03T22:07:48.639Z,7.93
2023-02-03T22:10:20.136Z,9.70
2023-02-03T22:12:50.659Z,10.40
2023-02-03T22:15:22.889Z,10.60
2023-02-03T22:17:53.262Z,10.90
2023-02-03T22:20:23.386Z,12.37
2023-02-03T22:22:53.183Z,15.70
2023-02-03T22:25:24.435Z,15.50
2023-02-03T22:27:54.688Z,16.53
2023-02-03T22:30:26.403Z,19.93
2023-02-03T22:32:58.269Z,17.90
2023-02-03T22:35:29.212Z,17.80
2023-02-03T22:37:59.798Z,17.00
2023-02-03T22:40:30.646Z,16.40
2023-02-03T22:43:01.872Z,14.73
2023-02-03T22:45:33.819Z,15.20
2023-02-03T22:48:04.156Z,14.40
2023-02-03T22:50:36.393Z,15.60
2023-02-03T22:53:09.738Z,13.83
2023-02-03T22:55:41.642Z,14.67
2023-02-03T22:58:11.456Z,10.80
2023-02-03T23:00:43.384Z,11.70
2023-02-03T23:03:13.162Z,11.73
2023-02-03T23:05:43.292Z,9.90
2023-02-03T23:08:14.213Z,7.70
2023-02-03T23:10:44.370Z,7.27
2023-02-03T23:13:13.956Z,7.30
2023-02-03T23:15:45.743Z,5.83
2023-02-03T23:18:15.613Z,6.80
2023-02-03T23:20:46.357Z,6.13
2023-02-03T23:23:16.721Z,7.83
2023-02-03T23:25:46.870Z,7.93
2023-02-03T23:28:16.644Z,8.67
2023-02-03T23:30:48.394Z,7.63
2023-02-03T23:33:18.859Z,8.80
2023-02-03T23:35:48.112Z,6.73
2023-02-03T23:38:18.670Z,6.77
2023-02-03T23:40:50.317Z,6.73
2023-02-03T23:43:20.255Z,5.67
2023-02-03T23:45:51.764Z,5.70
2023-02-03T23:48:22.258Z,5.50
2023-02-03T23:50:52.382Z,6.53
2023-02-03T23:53:22.166Z,4.70
2023-02-03T23:55:52.652Z,5.63
2023-02-03T23:58:22.754Z,4.90
